Terminal Aerodrome Forecast
Issued by NWS Rapid City, SD

Home | Current Version | Previous Version | Graphics & Text | Print | Product List | Glossary On
Versions: 1 2 3 4 5 6 7 8 9 10 11 12 13 14 15
000
FTUS43 KUNR 271400 AAA
TAFRAP
TAF AMD
KRAP 271445Z 2715/2812 35009KT P6SM BKN080
     FM271800 33025G35KT P6SM SCT050 BKN150
     FM280000 33015KT P6SM SKC=

USA.gov is the U.S. government's official web portal to all federal, state and local government web resources and services.